Brandon, Minnesota
Current Conditions -  °F | °C
As of 3:53 PM on Saturday 25 Oct 2014 (Local Time) from KAXN Reporting Station
Clear Clear  
Wind Chill: 58°   Ceiling: Unl
Heat Index: 58°   Visibility: 10mi
Dew Point: 25°   Wind: 15mph
Humidity: 28%   Direction: 310°NW
Pressure: 30.09"   Gusts: NA
Location:  45.97°N, 95.6°W
Report Text: KAXN 252053Z AUTO 31013KT 10SM CLR 14/M04 A3009 RMK AO2 SLP194 T01441039 56006
Loading
Personal Weather Stations






























Interactive Weather Map
Tropical Storm Tracking
New forecast layout! Learn more

10-Day Weather Forecast

Advertisements
Track Severe Weather on mobile